Time;durP1;ratioP1;P1;durP2;ratioP2;P2;SDS_P1;SDS_P2;PMS_P1;PMS_P2;Temp;Humidity;BMP_temperature;BMP_pressure;BME280_temperature;BME280_humidity;BME280_pressure;Samples;Min_cycle;Max_cycle;Signal;HPM_P1;HPM_P2
2021/12/13 00:02:38;;;;;;;94.67;24.70;;;;;;;9.75;34.12;100453.50;5091047;28;20043;-74
2021/12/13 00:05:11;;;;;;;140.00;25.57;;;;;;;9.14;34.66;100431.44;5083180;28;20137;-74
2021/12/13 00:07:40;;;;;;;100.80;23.23;;;;;;;8.91;34.82;100427.22;5091648;28;20057;-74
2021/12/13 00:10:11;;;;;;;96.87;24.80;;;;;;;9.26;35.38;100446.28;5092310;28;20123;-73
2021/12/13 00:12:42;;;;;;;86.53;23.23;;;;;;;9.45;34.86;100441.09;5058162;28;20032;-73
2021/12/13 00:15:17;;;;;;;104.97;24.30;;;;;;;9.75;34.55;100448.22;5075312;28;20035;-74
2021/12/13 00:17:47;;;;;;;93.47;23.27;;;;;;;9.39;34.67;100431.03;5042520;28;20093;-73
2021/12/13 00:20:50;;;;;;;117.50;23.97;;;;;;;9.52;34.39;100430.78;5058491;28;20032;-74
2021/12/13 00:23:25;;;;;;;110.10;25.20;;;;;;;9.25;35.09;100443.75;5014030;28;20500;-74
2021/12/13 00:25:54;;;;;;;86.70;24.43;;;;;;;9.34;34.73;100443.84;5081766;28;20040;-74
2021/12/13 00:28:21;;;;;;;87.20;23.23;;;;;;;8.79;35.62;100446.78;5074925;28;20040;-74
2021/12/13 00:31:04;;;;;;;102.10;24.00;;;;;;;9.19;35.43;100441.63;5073489;28;20040;-73
2021/12/13 00:33:37;;;;;;;101.90;22.40;;;;;;;9.52;34.60;100455.50;5056197;28;20531;-73
2021/12/13 00:36:08;;;;;;;166.70;23.90;;;;;;;8.98;34.58;100468.13;5089856;28;20051;-74
2021/12/13 00:38:36;;;;;;;;;;;;;;;9.77;33.93;100451.56;5073662;28;20059;-73
2021/12/13 00:41:16;;;;;;;122.57;22.10;;;;;;;9.36;34.66;100455.16;5072951;28;19920;-74
2021/12/13 00:43:59;;;;;;;147.93;24.47;;;;;;;9.41;34.50;100444.97;5089739;28;20044;-74
2021/12/13 00:46:26;;;;;;;145.73;24.30;;;;;;;9.22;34.70;100446.69;5072815;28;20039;-74
2021/12/13 00:48:54;;;;;;;96.80;23.30;;;;;;;9.32;34.78;100453.72;5091753;28;20051;-74
2021/12/13 00:51:27;;;;;;;129.27;25.53;;;;;;;9.61;34.27;100443.28;5075100;28;20047;-74
2021/12/13 00:53:56;;;;;;;118.67;23.53;;;;;;;9.54;34.52;100437.66;5092012;28;20051;-74
2021/12/13 00:56:52;;;;;;;91.33;21.93;;;;;;;9.63;33.94;100450.13;5058258;28;20385;-74
2021/12/13 00:59:33;;;;;;;121.60;22.37;;;;;;;9.06;34.80;100463.03;5058172;28;20411;-74
2021/12/13 01:02:16;;;;;;;111.72;23.10;;;;;;;9.19;34.84;100439.84;5091409;28;20039;-74
2021/12/13 01:04:53;;;;;;;116.80;22.53;;;;;;;9.42;34.33;100436.06;5091326;28;20051;-73
2021/12/13 01:07:53;;;;;;;95.03;22.97;;;;;;;9.26;34.50;100456.03;5056660;28;20109;-73
2021/12/13 01:11:09;;;;;;;124.80;21.43;;;;;;;9.35;34.86;100439.38;5073736;28;20055;-74
2021/12/13 01:13:50;;;;;;;90.33;22.23;;;;;;;9.56;34.68;100448.97;5058409;28;20499;-74
2021/12/13 01:16:35;;;;;;;126.65;23.98;;;;;;;9.07;35.10;100451.44;5090373;28;20040;-73
2021/12/13 01:19:31;;;;;;;109.63;25.43;;;;;;;9.24;35.13;100445.56;5090428;28;20052;-73
2021/12/13 01:27:30;;;;;;;99.83;24.83;;;;;;;9.61;34.67;100425.53;5073398;28;20072;-74
2021/12/13 01:29:56;;;;;;;107.50;24.17;;;;;;;9.48;34.43;100424.94;5073530;28;20083;-74
2021/12/13 01:32:23;;;;;;;290.33;26.90;;;;;;;9.32;34.25;100439.59;5073407;28;20036;-74
2021/12/13 01:34:49;;;;;;;255.03;28.33;;;;;;;9.08;34.17;100449.66;5105635;28;20609;-73
2021/12/13 01:37:16;;;;;;;129.37;24.77;;;;;;;8.58;34.98;100411.47;5089350;28;20048;-74
2021/12/13 01:39:46;;;;;;;115.87;23.13;;;;;;;9.47;34.54;100436.50;5106676;28;20164;-75
2021/12/13 01:42:22;;;;;;;96.27;23.73;;;;;;;9.61;34.13;100433.50;5072944;28;20147;-74
2021/12/13 01:44:52;;;;;;;84.80;21.33;;;;;;;9.33;34.60;100443.97;5091004;28;20674;-74
2021/12/13 01:47:24;;;;;;;83.60;22.33;;;;;;;9.53;34.18;100432.50;5090335;28;20105;-74
2021/12/13 01:49:55;;;;;;;78.63;20.70;;;;;;;8.90;35.08;100425.56;5089837;28;20071;-74
2021/12/13 01:52:26;;;;;;;;;;;;;;;9.63;33.61;100430.72;5089718;28;20036;-75
2021/12/13 01:54:53;;;;;;;64.07;18.20;;;;;;;8.80;34.97;100437.88;5072434;28;19943;-75
2021/12/13 01:57:24;;;;;;;73.77;20.73;;;;;;;8.59;35.34;100410.53;5072568;28;20109;-73
2021/12/13 02:00:08;;;;;;;74.87;19.00;;;;;;;9.01;34.80;100412.22;5106564;28;20385;-74
2021/12/13 02:02:41;;;;;;;62.50;18.53;;;;;;;8.97;35.05;100444.41;5091005;28;20040;-74
2021/12/13 02:05:22;;;;;;;74.63;20.10;;;;;;;9.16;34.60;100429.50;5047434;28;1279371;-74
2021/12/13 02:07:59;;;;;;;61.03;19.25;;;;;;;9.36;34.48;100436.59;5090824;28;20138;-74
2021/12/13 02:10:29;;;;;;;64.93;19.20;;;;;;;8.71;35.18;100409.50;5040240;28;20104;-73
2021/12/13 02:13:06;;;;;;;64.50;17.37;;;;;;;8.84;35.07;100415.44;5073375;28;20058;-73
2021/12/13 02:18:23;;;;;;;64.70;19.47;;;;;;;8.88;35.10;100438.06;5104628;28;20131;-74
2021/12/13 02:21:05;;;;;;;64.80;18.80;;;;;;;8.79;35.39;100432.69;5073214;28;20093;-73
2021/12/13 02:23:52;;;;;;;65.63;17.67;;;;;;;9.23;34.81;100424.50;5057747;28;20048;-74
2021/12/13 02:26:18;;;;;;;57.90;18.27;;;;;;;8.38;35.51;100423.69;5057214;28;20127;-76
2021/12/13 02:28:47;;;;;;;56.13;17.43;;;;;;;9.02;35.01;100405.97;5073695;28;20052;-80
2021/12/13 02:31:15;;;;;;;59.10;17.13;;;;;;;9.17;34.67;100415.25;5089699;28;20074;-75
2021/12/13 02:33:49;;;;;;;61.23;17.27;;;;;;;9.31;34.36;100393.72;5057059;28;20036;-76
2021/12/13 02:36:19;;;;;;;69.33;18.50;;;;;;;9.11;34.79;100397.22;5073395;28;20040;-79
2021/12/13 02:38:47;;;;;;;59.15;17.83;;;;;;;9.05;34.69;100402.22;5090562;28;20536;-74
2021/12/13 02:41:16;;;;;;;65.27;18.27;;;;;;;9.11;34.78;100410.50;5089874;28;20048;-73
2021/12/13 02:43:48;;;;;;;70.00;17.60;;;;;;;9.07;34.55;100409.03;5073793;28;20118;-75
2021/12/13 02:46:14;;;;;;;59.53;17.13;;;;;;;8.86;34.62;100396.78;5106176;28;20047;-73
2021/12/13 02:48:56;;;;;;;57.37;16.67;;;;;;;9.49;34.11;100402.75;5089133;28;20077;-75
2021/12/13 02:51:25;;;;;;;55.27;16.37;;;;;;;9.22;34.36;100409.56;5056326;28;20104;-78
2021/12/13 02:54:06;;;;;;;53.57;15.90;;;;;;;9.30;34.24;100405.28;5106640;28;20044;-76
2021/12/13 02:56:36;;;;;;;54.25;16.02;;;;;;;8.73;35.15;100390.84;5072582;28;20101;-79
2021/12/13 02:59:03;;;;;;;60.17;16.77;;;;;;;8.98;34.77;100399.22;5089401;28;20047;-73
2021/12/13 03:01:46;;;;;;;56.07;18.10;;;;;;;8.69;35.23;100405.31;5089728;28;20074;-72
2021/12/13 03:04:16;;;;;;;60.40;16.73;;;;;;;8.93;35.15;100401.44;5106803;28;20051;-74
2021/12/13 03:06:55;;;;;;;58.50;17.10;;;;;;;9.32;34.59;100389.25;5089725;28;20067;-74
2021/12/13 03:09:23;;;;;;;55.47;16.10;;;;;;;9.09;34.73;100390.38;5089833;28;20082;-76
2021/12/13 03:11:51;;;;;;;54.30;16.33;;;;;;;9.15;34.48;100393.34;5090588;28;20040;-75
2021/12/13 03:14:24;;;;;;;55.40;17.07;;;;;;;9.19;34.59;100399.22;5055199;28;20130;-74
2021/12/13 03:17:29;;;;;;;54.37;16.30;;;;;;;9.57;33.59;100394.13;5088628;28;20173;-75
2021/12/13 03:20:16;;;;;;;47.83;15.27;;;;;;;9.73;33.62;100376.72;5088928;28;20051;-75
2021/12/13 03:23:09;;;;;;;48.47;15.17;;;;;;;9.48;34.12;100385.16;5072822;28;20051;-75
2021/12/13 03:25:50;;;;;;;53.43;15.93;;;;;;;9.25;34.44;100381.00;5055561;28;20096;-76
2021/12/13 03:28:34;;;;;;;54.87;15.90;;;;;;;9.28;34.53;100359.53;5072516;28;20040;-76
2021/12/13 03:31:14;;;;;;;58.27;14.87;;;;;;;9.28;34.21;100363.97;5054932;28;20056;-75
2021/12/13 03:33:52;;;;;;;58.23;14.97;;;;;;;9.32;34.02;100360.94;5071362;28;20094;-77
2021/12/13 03:36:23;;;;;;;59.63;15.73;;;;;;;9.37;34.49;100353.44;5072142;28;20071;-77
2021/12/13 03:38:52;;;;;;;57.67;15.70;;;;;;;9.01;34.79;100361.06;5089743;28;20036;-79
2021/12/13 03:41:22;;;;;;;56.80;15.73;;;;;;;9.29;34.33;100373.59;5088330;28;20099;-76
2021/12/13 03:44:02;;;;;;;64.55;16.02;;;;;;;9.43;34.26;100373.25;5068551;28;20078;-76
2021/12/13 03:46:33;;;;;;;59.27;16.67;;;;;;;9.48;34.28;100365.75;5052432;28;20043;-76
2021/12/13 03:49:00;;;;;;;55.83;16.42;;;;;;;9.48;34.14;100371.06;5103414;28;20040;-76
2021/12/13 03:51:32;;;;;;;57.30;15.97;;;;;;;9.36;34.36;100378.28;5069922;28;20067;-76
2021/12/13 03:53:59;;;;;;;70.30;16.27;;;;;;;8.78;34.86;100375.41;5086326;28;20032;-76
2021/12/13 03:56:29;;;;;;;61.77;16.53;;;;;;;9.42;34.56;100353.88;5088566;28;20040;-77
2021/12/13 03:59:01;;;;;;;57.85;17.40;;;;;;;9.49;34.24;100352.34;5089800;28;20052;-77
2021/12/13 04:01:36;;;;;;;61.67;16.27;;;;;;;9.12;34.65;100345.09;5092618;28;20511;-76
2021/12/13 04:04:05;;;;;;;86.00;18.67;;;;;;;9.08;34.85;100367.50;5092531;28;20148;-81
2021/12/13 04:06:32;;;;;;;87.33;18.73;;;;;;;8.67;35.06;100360.41;5075759;28;20067;-80
2021/12/13 04:08:59;;;;;;;89.83;18.27;;;;;;;8.58;36.03;100356.72;5092626;28;20543;-80
2021/12/13 04:11:27;;;;;;;66.87;17.80;;;;;;;9.25;35.23;100353.66;5075441;28;20066;-77
2021/12/13 04:14:05;;;;;;;61.47;16.97;;;;;;;9.53;34.48;100343.16;5105448;28;20081;-73
2021/12/13 04:16:49;;;;;;;78.13;17.27;;;;;;;9.25;34.92;100365.09;5056144;28;20044;-77
2021/12/13 04:19:21;;;;;;;121.33;18.93;;;;;;;9.04;35.26;100344.91;5090771;28;20074;-76
2021/12/13 04:21:57;;;;;;;98.93;17.70;;;;;;;8.57;35.31;100343.59;5092302;28;20562;-76
2021/12/13 04:24:33;;;;;;;83.77;18.07;;;;;;;9.24;34.80;100338.72;5089641;28;20097;-74
2021/12/13 04:27:06;;;;;;;82.63;17.57;;;;;;;9.36;34.70;100329.72;5091111;28;20422;-72
2021/12/13 04:29:38;;;;;;;79.53;18.73;;;;;;;9.15;34.80;100292.63;5090194;28;20040;-74
2021/12/13 04:32:32;;;;;;;128.47;22.13;;;;;;;9.41;34.24;100332.81;5090076;28;20131;-70
2021/12/13 04:35:00;;;;;;;74.80;17.40;;;;;;;9.36;34.84;100338.50;5089078;28;20582;-73
2021/12/13 04:37:29;;;;;;;74.60;17.83;;;;;;;9.23;35.12;100329.94;5091547;28;20496;-74
2021/12/13 04:40:00;;;;;;;167.47;20.27;;;;;;;9.10;35.45;100329.28;5107106;28;20036;-72
2021/12/13 04:42:28;;;;;;;94.23;18.43;;;;;;;8.87;35.61;100322.50;5107164;28;20149;-71
2021/12/13 04:45:06;;;;;;;70.67;17.20;;;;;;;9.50;34.97;100334.66;5072523;28;20220;-70
2021/12/13 04:47:37;;;;;;;135.67;19.53;;;;;;;8.12;35.50;100302.38;5090236;28;20051;-72
2021/12/13 04:50:09;;;;;;;103.67;17.67;;;;;;;9.00;35.55;100338.16;5091636;28;20043;-74
2021/12/13 04:52:36;;;;;;;216.43;22.30;;;;;;;8.80;35.60;100318.69;5091163;28;20051;-73
2021/12/13 04:55:08;;;;;;;181.43;19.97;;;;;;;9.24;35.26;100339.53;5091288;28;20047;-74
2021/12/13 04:57:34;;;;;;;80.43;18.27;;;;;;;8.90;35.08;100329.34;5091418;28;20047;-71
2021/12/13 05:00:05;;;;;;;81.53;18.63;;;;;;;9.28;34.92;100316.28;5090026;28;20036;-71
2021/12/13 05:02:31;;;;;;;131.57;20.38;;;;;;;8.81;35.28;100327.47;5090007;28;20036;-73
2021/12/13 05:04:59;;;;;;;132.13;22.07;;;;;;;9.34;34.93;100323.69;5105871;28;20097;-73
2021/12/13 05:07:27;;;;;;;101.17;20.73;;;;;;;9.22;35.02;100338.00;5088513;28;20123;-71
2021/12/13 05:09:53;;;;;;;200.77;21.90;;;;;;;8.93;35.39;100335.22;5087067;28;20561;-67
2021/12/13 05:12:26;;;;;;;152.07;21.13;;;;;;;9.06;35.62;100341.13;5090019;28;20051;-72
2021/12/13 05:14:56;;;;;;;117.10;18.23;;;;;;;8.94;35.64;100342.19;5073375;28;20036;-69
2021/12/13 05:17:25;;;;;;;288.43;24.40;;;;;;;8.49;36.07;100323.06;5091891;28;20047;-72
2021/12/13 05:19:55;;;;;;;311.60;26.67;;;;;;;8.87;36.00;100325.16;5090458;28;20530;-74
2021/12/13 05:22:21;;;;;;;209.57;23.30;;;;;;;9.11;35.42;100340.75;5107077;28;20044;-74
2021/12/13 05:24:55;;;;;;;232.47;22.27;;;;;;;9.39;34.97;100322.34;5089318;28;20040;-74
2021/12/13 05:27:29;;;;;;;145.57;22.23;;;;;;;9.50;34.76;100335.47;5092900;28;20048;-72
2021/12/13 05:30:07;;;;;;;270.63;23.03;;;;;;;9.48;34.41;100310.91;5091873;28;20047;-73
2021/12/13 05:32:36;;;;;;;111.30;20.83;;;;;;;9.39;34.46;100301.13;5106329;28;20479;-71
2021/12/13 05:35:25;;;;;;;144.23;20.60;;;;;;;10.02;33.95;100326.41;5089580;28;20039;-71
2021/12/13 05:37:55;;;;;;;169.13;22.27;;;;;;;9.64;34.38;100340.41;5088756;28;20074;-73
2021/12/13 05:40:25;;;;;;;99.15;21.33;;;;;;;9.79;34.60;100339.03;5089029;28;20126;-72
2021/12/13 05:42:54;;;;;;;305.23;26.55;;;;;;;9.74;34.33;100337.78;5090117;28;20427;-72
2021/12/13 05:45:36;;;;;;;114.23;20.43;;;;;;;10.09;33.51;100346.97;5090475;28;20456;-72
2021/12/13 05:48:10;;;;;;;246.10;24.00;;;;;;;9.57;34.04;100312.75;5105433;28;20051;-72
2021/12/13 05:50:40;;;;;;;246.00;25.17;;;;;;;9.61;34.52;100347.81;5071783;28;20055;-71
2021/12/13 05:53:19;;;;;;;195.35;22.25;;;;;;;9.60;34.31;100338.16;5088483;28;20043;-73
2021/12/13 05:56:16;;;;;;;110.10;21.90;;;;;;;9.62;34.03;100294.63;5089827;28;20162;-72
2021/12/13 05:58:51;;;;;;;101.13;21.07;;;;;;;10.06;33.86;100346.38;5059262;28;20138;-73
2021/12/13 06:01:24;;;;;;;99.50;21.90;;;;;;;9.97;33.93;100332.13;5055068;28;20046;-71
2021/12/13 06:04:11;;;;;;;93.77;21.63;;;;;;;9.99;33.87;100338.09;5089444;28;20104;-74
2021/12/13 06:06:52;;;;;;;175.33;23.40;;;;;;;9.79;34.18;100340.88;5088194;28;20557;-73
2021/12/13 06:10:02;;;;;;;162.95;21.92;;;;;;;10.10;33.74;100342.50;5104853;28;20056;-73
2021/12/13 06:12:45;;;;;;;100.30;22.42;;;;;;;10.27;33.35;100334.69;5081788;28;20097;-73
2021/12/13 06:15:17;;;;;;;137.83;22.93;;;;;;;9.79;34.29;100323.13;5089288;28;20472;-73
2021/12/13 06:17:46;;;;;;;128.33;20.80;;;;;;;9.75;34.33;100337.66;5089483;28;20043;-72
2021/12/13 06:20:21;;;;;;;121.03;21.30;;;;;;;9.93;33.98;100329.88;5105325;28;20411;-74
2021/12/13 06:22:47;;;;;;;159.80;24.37;;;;;;;9.45;34.26;100337.69;5088032;28;20120;-73
2021/12/13 06:25:16;;;;;;;251.20;25.70;;;;;;;9.50;34.27;100318.75;5071870;28;20044;-75
2021/12/13 06:27:44;;;;;;;129.00;22.67;;;;;;;9.14;34.45;100348.41;5088236;28;20043;-73
2021/12/13 06:30:19;;;;;;;282.63;25.73;;;;;;;9.86;33.72;100340.19;5054636;28;20050;-74
2021/12/13 06:33:00;;;;;;;100.97;22.27;;;;;;;10.04;33.80;100340.38;5071337;28;20043;-72
2021/12/13 06:35:39;;;;;;;124.80;22.13;;;;;;;9.92;33.93;100344.09;5054324;28;20122;-71
2021/12/13 06:38:22;;;;;;;97.50;20.73;;;;;;;10.19;33.46;100344.34;5104905;28;20563;-73
2021/12/13 06:40:55;;;;;;;110.63;21.20;;;;;;;10.08;33.91;100331.19;5070969;28;20064;-74
2021/12/13 06:43:39;;;;;;;134.43;23.33;;;;;;;10.54;33.05;100335.78;5089258;28;20134;-73
2021/12/13 06:46:36;;;;;;;111.37;24.20;;;;;;;10.08;33.39;100329.38;5070906;28;20047;-73
2021/12/13 06:49:07;;;;;;;109.43;22.37;;;;;;;10.03;33.76;100328.91;5086284;28;20044;-75
2021/12/13 06:52:04;;;;;;;97.18;22.38;;;;;;;10.20;33.42;100325.59;5070965;28;20396;-74
2021/12/13 06:54:41;;;;;;;92.83;21.57;;;;;;;9.81;33.99;100334.44;5087898;28;20142;-75
2021/12/13 06:57:14;;;;;;;96.37;22.30;;;;;;;9.78;33.99;100334.72;5089951;28;20503;-75
2021/12/13 06:59:46;;;;;;;104.87;22.00;;;;;;;9.94;33.86;100340.34;5088418;28;20040;-73
2021/12/13 07:02:25;;;;;;;84.47;22.37;;;;;;;9.26;34.17;100334.97;5071265;28;20036;-74
2021/12/13 07:04:53;;;;;;;88.50;22.07;;;;;;;9.08;34.17;100328.59;5087521;28;20040;-73
2021/12/13 07:07:22;;;;;;;89.47;22.67;;;;;;;9.69;33.73;100309.00;5089348;28;20052;-70
2021/12/13 07:09:56;;;;;;;75.93;21.53;;;;;;;9.20;34.38;100293.09;5088452;28;20040;-73
2021/12/13 07:12:24;;;;;;;86.43;22.40;;;;;;;9.88;33.94;100322.34;5088775;28;20100;-73
2021/12/13 07:14:51;;;;;;;87.37;23.30;;;;;;;9.35;34.12;100328.03;5104377;28;20076;-73
2021/12/13 07:17:31;;;;;;;87.00;22.50;;;;;;;9.69;33.88;100318.78;5087871;28;20445;-72
2021/12/13 07:20:00;;;;;;;76.50;21.08;;;;;;;9.68;33.86;100328.56;5087574;28;20067;-69
2021/12/13 07:22:28;;;;;;;83.10;21.37;;;;;;;9.70;33.59;100329.25;5070901;28;20512;-73
2021/12/13 07:25:05;;;;;;;81.00;21.43;;;;;;;9.27;33.73;100259.75;5087878;28;20043;-71
2021/12/13 07:27:35;;;;;;;79.70;22.23;;;;;;;9.76;33.61;100338.50;5071035;28;20036;-73
2021/12/13 07:30:19;;;;;;;67.88;20.10;;;;;;;9.75;33.60;100332.34;5070977;28;20040;-75
2021/12/13 07:32:53;;;;;;;80.33;22.90;;;;;;;10.14;33.14;100343.91;5088616;28;20040;-74
2021/12/13 07:35:40;;;;;;;75.20;22.57;;;;;;;9.69;33.77;100335.53;5059081;28;20056;-75
2021/12/13 07:38:11;;;;;;;74.33;22.40;;;;;;;9.78;33.46;100329.41;5092131;28;20090;-76
2021/12/13 07:40:55;;;;;;;72.93;21.47;;;;;;;10.04;33.11;100343.84;5075381;28;20043;-77
2021/12/13 07:43:34;;;;;;;76.10;20.07;;;;;;;10.02;33.00;100350.28;5093269;28;20134;-77
2021/12/13 07:46:17;;;;;;;67.50;20.17;;;;;;;9.62;33.56;100342.38;5054574;28;20106;-77
2021/12/13 07:48:43;;;;;;;65.27;19.50;;;;;;;9.01;33.75;100353.94;5071848;28;20055;-76
2021/12/13 07:51:33;;;;;;;76.83;21.83;;;;;;;9.82;33.38;100345.91;5038943;28;20049;-77
2021/12/13 07:53:59;;;;;;;79.47;23.33;;;;;;;8.91;33.96;100361.00;5073739;28;20534;-75
2021/12/13 07:56:39;;;;;;;73.60;22.07;;;;;;;9.97;32.93;100356.00;5055193;28;20053;-76
2021/12/13 07:59:34;;;;;;;68.60;21.95;;;;;;;9.98;32.97;100339.09;5070959;28;20085;-76
2021/12/13 08:02:40;;;;;;;63.67;20.50;;;;;;;9.92;33.40;100337.00;5071371;28;20510;-77
2021/12/13 08:05:13;;;;;;;64.77;20.07;;;;;;;9.64;33.32;100337.75;5048979;28;20059;-76
2021/12/13 08:07:48;;;;;;;73.87;21.67;;;;;;;9.86;33.36;100344.66;5071273;28;20048;-75
2021/12/13 08:10:22;;;;;;;63.70;20.73;;;;;;;9.83;33.36;100347.56;5055801;28;20044;-77
2021/12/13 08:12:57;;;;;;;61.60;21.17;;;;;;;9.94;33.47;100347.47;5054736;28;20045;-76
2021/12/13 08:15:30;;;;;;;65.93;21.07;;;;;;;9.69;33.52;100346.16;5055136;28;20040;-76
2021/12/13 08:18:00;;;;;;;72.77;21.50;;;;;;;9.49;33.54;100317.88;5038161;28;20039;-79
2021/12/13 08:20:30;;;;;;;66.82;21.85;;;;;;;9.74;33.43;100351.03;5056339;28;20399;-76
2021/12/13 08:22:59;;;;;;;69.73;21.83;;;;;;;9.23;33.82;100355.56;5071407;28;20067;-75
2021/12/13 08:25:28;;;;;;;67.57;20.83;;;;;;;9.67;33.69;100348.09;5072727;28;20075;-75
2021/12/13 08:28:00;;;;;;;67.63;20.70;;;;;;;9.69;33.34;100363.88;5071180;28;20124;-76
2021/12/13 08:30:55;;;;;;;68.13;22.07;;;;;;;9.67;33.29;100326.88;5072107;28;20416;-75
2021/12/13 08:33:35;;;;;;;71.57;22.20;;;;;;;9.80;33.53;100347.84;5069976;28;20056;-77
2021/12/13 08:36:13;;;;;;;67.97;21.63;;;;;;;9.93;33.14;100346.63;5070403;28;20096;-75
2021/12/13 08:38:50;;;;;;;65.30;21.23;;;;;;;9.91;33.18;100348.59;5054173;28;20075;-75
2021/12/13 08:41:42;;;;;;;58.07;20.07;;;;;;;9.66;33.23;100311.94;5054497;28;20044;-73
2021/12/13 08:44:11;;;;;;;65.20;22.27;;;;;;;9.65;33.45;100336.78;5070452;28;20075;-75
2021/12/13 08:46:57;;;;;;;75.10;23.03;;;;;;;10.13;32.85;100337.75;5070653;28;20056;-75
2021/12/13 08:49:29;;;;;;;64.30;21.87;;;;;;;9.81;33.16;100336.28;5036803;28;20055;-71
2021/12/13 08:52:13;;;;;;;60.37;21.63;;;;;;;10.09;32.95;100346.97;5070851;28;20040;-70
2021/12/13 08:55:01;;;;;;;61.60;20.80;;;;;;;9.97;33.30;100337.44;5070738;28;20066;-71
2021/12/13 08:57:36;;;;;;;63.80;20.70;;;;;;;10.02;32.91;100353.75;5068022;28;20484;-71
2021/12/13 09:00:26;;;;;;;60.07;20.70;;;;;;;10.36;32.56;100348.97;5067297;28;20493;-69
2021/12/13 09:03:17;;;;;;;62.40;21.30;;;;;;;9.89;33.00;100344.38;5055821;28;20072;-70
2021/12/13 09:06:01;;;;;;;61.37;20.80;;;;;;;10.03;32.58;100315.66;5060842;28;20048;-70
2021/12/13 09:08:53;;;;;;;58.90;19.70;;;;;;;10.49;32.36;100335.38;5068878;28;20052;-71
2021/12/13 09:11:30;;;;;;;71.87;20.97;;;;;;;10.58;32.19;100332.72;5033828;28;20055;-70
2021/12/13 09:14:10;;;;;;;69.73;20.40;;;;;;;10.54;31.96;100333.13;5070722;28;20514;-70
2021/12/13 09:16:45;;;;;;;58.07;20.03;;;;;;;10.54;32.16;100323.38;5069092;28;20060;-70
2021/12/13 09:19:21;;;;;;;71.70;21.77;;;;;;;10.40;32.51;100315.81;5069444;28;20044;-70
2021/12/13 09:22:19;;;;;;;63.53;21.43;;;;;;;10.70;31.95;100310.31;5070587;28;20181;-70
2021/12/13 09:25:03;;;;;;;57.60;20.87;;;;;;;10.75;31.87;100299.31;5069399;28;20036;-70
2021/12/13 09:27:34;;;;;;;65.77;20.23;;;;;;;10.15;32.34;100303.09;5070122;28;20142;-70
2021/12/13 09:30:12;;;;;;;68.18;22.52;;;;;;;10.73;31.87;100266.72;5053051;28;20082;-71
2021/12/13 09:32:49;;;;;;;64.07;21.93;;;;;;;10.93;32.08;100294.91;5068619;28;20040;-70
2021/12/13 09:35:30;;;;;;;70.93;21.60;;;;;;;11.38;31.46;100287.88;5068596;28;20048;-70
2021/12/13 09:38:00;;;;;;;64.03;22.48;;;;;;;10.88;31.74;100292.69;5068499;28;20046;-70
2021/12/13 09:40:35;;;;;;;75.82;22.27;;;;;;;11.27;31.47;100278.25;5052537;28;20078;-70
2021/12/13 09:43:01;;;;;;;67.90;21.20;;;;;;;10.82;32.13;100281.78;5068725;28;20086;-70
2021/12/13 09:45:38;;;;;;;54.00;20.30;;;;;;;11.39;31.52;100284.25;5070507;28;20538;-70
2021/12/13 09:48:23;;;;;;;60.93;21.23;;;;;;;11.44;31.04;100284.63;5068864;28;20040;-70
2021/12/13 09:50:52;;;;;;;65.97;21.00;;;;;;;11.35;31.60;100261.56;5068486;28;20119;-70
2021/12/13 09:53:23;;;;;;;61.87;21.30;;;;;;;11.62;31.47;100280.19;5068700;28;20036;-70
2021/12/13 09:55:50;;;;;;;56.10;21.55;;;;;;;11.37;31.31;100283.53;5069374;28;20036;-71
2021/12/13 09:58:17;;;;;;;52.50;19.97;;;;;;;10.92;31.27;100270.16;5068405;28;20119;-77
2021/12/13 10:00:54;;;;;;;59.23;21.03;;;;;;;11.68;30.79;100277.81;5068628;28;20047;-70
2021/12/13 10:03:28;;;;;;;56.23;20.13;;;;;;;11.41;31.24;100274.25;5068506;28;20500;-70
2021/12/13 10:05:59;;;;;;;62.23;20.97;;;;;;;11.59;31.14;100243.25;5068323;28;20511;-71
2021/12/13 10:08:59;;;;;;;55.90;20.75;;;;;;;12.05;30.86;100267.03;5068656;28;20039;-70
2021/12/13 10:11:36;;;;;;;56.95;19.05;;;;;;;11.73;30.88;100266.72;5038576;28;20048;-71
2021/12/13 10:14:05;;;;;;;58.57;20.67;;;;;;;11.82;31.02;100276.47;5069870;28;20396;-70
2021/12/13 10:16:34;;;;;;;54.80;19.17;;;;;;;11.80;31.29;100270.44;5052280;28;20040;-70
2021/12/13 10:19:02;;;;;;;55.67;19.80;;;;;;;11.93;30.99;100278.91;5069122;28;20048;-71
2021/12/13 10:21:35;;;;;;;49.30;19.63;;;;;;;11.88;31.11;100260.69;5068740;28;20090;-69
2021/12/13 10:24:09;;;;;;;46.80;18.83;;;;;;;11.96;30.76;100269.78;5051566;28;20034;-70
2021/12/13 10:26:39;;;;;;;50.27;19.23;;;;;;;11.81;31.16;100269.44;5069935;28;20032;-69
2021/12/13 10:29:07;;;;;;;52.97;19.50;;;;;;;11.45;31.39;100267.69;5068145;28;20124;-70
2021/12/13 10:31:35;;;;;;;51.73;18.73;;;;;;;10.94;31.83;100272.66;5034769;28;20041;-70
2021/12/13 10:34:04;;;;;;;57.47;20.83;;;;;;;11.49;31.78;100271.72;5035001;28;20052;-70
2021/12/13 10:36:30;;;;;;;49.33;20.33;;;;;;;11.13;31.79;100275.25;5035203;28;20501;-70
2021/12/13 10:39:00;;;;;;;46.50;19.50;;;;;;;11.43;31.80;100272.31;5035122;28;20139;-70
2021/12/13 10:41:41;;;;;;;49.90;18.23;;;;;;;11.47;31.75;100273.69;5051790;28;20033;-69
2021/12/13 10:44:13;;;;;;;58.03;20.25;;;;;;;11.44;31.72;100269.50;5050917;28;20047;-70
2021/12/13 10:46:43;;;;;;;57.27;20.43;;;;;;;11.46;31.93;100264.03;5051548;28;20080;-69
2021/12/13 10:49:14;;;;;;;56.58;21.85;;;;;;;11.51;31.75;100262.63;5051017;28;20531;-71
2021/12/13 10:51:42;;;;;;;;;;;;;;;11.83;30.93;100268.31;5051918;28;20050;-70
2021/12/13 10:54:19;;;;;;;58.97;19.97;;;;;;;11.75;31.64;100273.56;5068140;28;19923;-70
2021/12/13 10:56:53;;;;;;;46.87;18.93;;;;;;;11.65;31.62;100270.09;5068863;28;20515;-69
2021/12/13 10:59:22;;;;;;;52.30;20.67;;;;;;;11.45;32.04;100273.00;5051639;28;20040;-71
2021/12/13 11:01:51;;;;;;;50.07;19.87;;;;;;;11.55;31.85;100276.44;5051304;28;20059;-70
2021/12/13 11:04:21;;;;;;;51.47;19.93;;;;;;;11.75;31.76;100262.06;5067591;28;20445;-70
2021/12/13 11:06:47;;;;;;;50.33;19.73;;;;;;;11.52;31.86;100276.72;5067467;28;20051;-71
2021/12/13 11:09:19;;;;;;;55.13;19.07;;;;;;;11.81;31.74;100277.44;5072990;28;20036;-70
2021/12/13 11:11:54;;;;;;;48.23;20.03;;;;;;;12.00;31.25;100268.47;5072702;28;20124;-70
2021/12/13 11:14:22;;;;;;;50.47;18.87;;;;;;;11.70;31.47;100275.00;5075292;28;20483;-71
2021/12/13 11:16:54;;;;;;;48.23;18.80;;;;;;;11.96;31.52;100275.94;5072703;28;20063;-70
2021/12/13 11:19:25;;;;;;;49.03;19.07;;;;;;;11.96;31.26;100278.59;5038797;28;20127;-70
2021/12/13 11:21:55;;;;;;;46.83;20.13;;;;;;;11.97;31.56;100272.28;5071620;28;20029;-71
2021/12/13 11:24:23;;;;;;;51.80;19.60;;;;;;;12.02;31.55;100272.66;5071512;28;20094;-70
2021/12/13 11:26:53;;;;;;;48.80;20.13;;;;;;;11.93;31.64;100257.63;5088360;28;20036;-70
2021/12/13 11:29:19;;;;;;;47.40;19.67;;;;;;;11.43;31.63;100267.00;5071623;28;20078;-70
2021/12/13 11:31:48;;;;;;;53.30;19.33;;;;;;;12.07;31.58;100266.88;5071416;28;20083;-70
2021/12/13 11:34:46;;;;;;;43.40;18.70;;;;;;;12.09;31.21;100267.56;5054628;28;20044;-70
2021/12/13 11:37:32;;;;;;;51.00;18.13;;;;;;;11.94;31.40;100269.91;5054801;28;20147;-70
2021/12/13 11:40:27;;;;;;;46.60;19.23;;;;;;;12.15;31.33;100270.44;5054671;28;20040;-70
2021/12/13 11:43:29;;;;;;;45.60;17.80;;;;;;;11.93;31.33;100266.41;5054784;28;20066;-71
2021/12/13 11:46:27;;;;;;;44.13;17.70;;;;;;;12.03;31.60;100254.84;5071335;28;20775;-71
2021/12/13 11:49:14;;;;;;;43.43;17.60;;;;;;;12.03;31.72;100255.69;5072879;28;20044;-70
2021/12/13 11:51:49;;;;;;;43.30;18.33;;;;;;;11.88;31.84;100252.72;5054507;28;20123;-71
2021/12/13 11:54:33;;;;;;;44.03;18.20;;;;;;;11.28;32.23;100236.56;5071133;28;20131;-73
2021/12/13 11:57:18;;;;;;;52.17;19.30;;;;;;;11.89;32.30;100219.81;5087633;28;20046;-72
2021/12/13 12:00:04;;;;;;;53.43;18.60;;;;;;;12.37;31.98;100218.53;5071069;28;20037;-73
2021/12/13 12:03:09;;;;;;;51.20;19.97;;;;;;;12.52;31.35;100236.47;5054820;28;20044;-71